Time;durP1;ratioP1;P1;durP2;ratioP2;P2;SDS_P1;SDS_P2;PMS_P1;PMS_P2;Temp;Humidity;BMP_temperature;BMP_pressure;BME280_temperature;BME280_humidity;BME280_pressure;Samples;Min_cycle;Max_cycle;Signal;HPM_P1;HPM_P2
2022/09/15 00:01:19;;;;;;;8.33;7.10;;;17.20;99.90;;;;;;4976585;28;20271;-55
2022/09/15 00:03:45;;;;;;;8.00;6.57;;;17.20;99.90;;;;;;4993319;28;20182;-57
2022/09/15 00:06:11;;;;;;;7.30;6.27;;;17.20;99.90;;;;;;4993746;28;20768;-56
2022/09/15 00:08:37;;;;;;;6.80;6.20;;;17.20;99.90;;;;;;4993456;28;20179;-56
2022/09/15 00:11:17;;;;;;;6.30;5.70;;;17.20;99.90;;;;;;4994031;28;20441;-55
2022/09/15 00:13:43;;;;;;;7.20;6.50;;;17.10;99.90;;;;;;4993411;28;20465;-55
2022/09/15 00:16:10;;;;;;;7.53;6.43;;;17.10;99.90;;;;;;4994035;28;20934;-56
2022/09/15 00:18:38;;;;;;;7.50;6.80;;;17.10;99.90;;;;;;4993252;28;20420;-54
2022/09/15 00:21:09;;;;;;;7.67;6.90;;;17.10;99.90;;;;;;4993516;28;20449;-57
2022/09/15 00:23:36;;;;;;;8.20;7.40;;;17.20;99.90;;;;;;4991988;28;20452;-58
2022/09/15 00:26:06;;;;;;;8.33;7.30;;;17.30;99.90;;;;;;4993518;28;20449;-54
2022/09/15 00:28:32;;;;;;;7.87;7.13;;;17.30;99.90;;;;;;4993437;28;20452;-56
2022/09/15 00:30:57;;;;;;;7.97;7.17;;;17.30;99.90;;;;;;4992788;28;20445;-56
2022/09/15 00:33:23;;;;;;;7.73;7.00;;;17.20;99.90;;;;;;4993196;28;20566;-55
2022/09/15 00:35:50;;;;;;;9.17;7.80;;;17.30;99.90;;;;;;4975647;28;20208;-55
2022/09/15 00:38:17;;;;;;;9.63;8.30;;;17.20;99.90;;;;;;4993394;28;20185;-55
2022/09/15 00:40:55;;;;;;;8.20;7.10;;;17.20;99.90;;;;;;4992517;28;20439;-56
2022/09/15 00:43:49;;;;;;;8.67;6.57;;;17.20;99.90;;;;;;4993028;28;20468;-56
2022/09/15 00:46:18;;;;;;;7.57;6.87;;;17.10;99.90;;;;;;4990708;28;20450;-56
2022/09/15 00:48:55;;;;;;;7.70;7.00;;;17.20;99.90;;;;;;4992572;28;20453;-55
2022/09/15 00:51:25;;;;;;;10.23;7.27;;;17.10;99.90;;;;;;4990621;28;20459;-57
2022/09/15 00:53:52;;;;;;;7.60;6.90;;;17.10;99.90;;;;;;4990624;28;20522;-54
2022/09/15 00:56:19;;;;;;;8.20;7.40;;;17.20;99.90;;;;;;4992836;28;20438;-54
2022/09/15 00:58:52;;;;;;;8.47;6.33;;;17.20;99.90;;;;;;4992815;28;20448;-56
2022/09/15 01:01:17;;;;;;;9.47;8.57;;;17.20;99.90;;;;;;4992427;28;20444;-54
2022/09/15 01:03:43;;;;;;;8.13;7.30;;;17.10;99.90;;;;;;4992875;28;20449;-53
2022/09/15 01:06:15;;;;;;;8.90;7.37;;;17.10;99.90;;;;;;4992241;28;20182;-55
2022/09/15 01:08:52;;;;;;;12.43;6.60;;;17.10;99.90;;;;;;4992543;28;20297;-56
2022/09/15 01:11:19;;;;;;;9.73;6.93;;;17.10;99.90;;;;;;4992544;28;20437;-55
2022/09/15 01:13:44;;;;;;;8.90;7.30;;;17.00;99.90;;;;;;4992576;28;20878;-56
2022/09/15 01:16:38;;;;;;;13.00;6.93;;;16.90;99.90;;;;;;4991979;28;21955;-54
2022/09/15 01:22:52;;;;;;;7.93;5.87;;;17.00;99.90;;;;;;4854681;29;20453;-55
2022/09/15 01:25:36;;;;;;;6.70;5.87;;;17.00;99.90;;;;;;4992161;28;20449;-55
2022/09/15 01:28:21;;;;;;;5.47;4.97;;;16.90;99.90;;;;;;4992091;28;20445;-54
2022/09/15 01:31:14;;;;;;;8.67;6.13;;;16.90;99.90;;;;;;4997331;28;20800;-56
2022/09/15 01:34:02;;;;;;;6.83;4.80;;;16.90;99.90;;;;;;4990823;28;20460;-56
2022/09/15 01:36:46;;;;;;;12.70;7.03;;;16.90;99.90;;;;;;4991287;28;20478;-56
2022/09/15 01:39:19;;;;;;;8.27;6.27;;;17.00;99.90;;;;;;4991824;28;20510;-55
2022/09/15 01:41:50;;;;;;;11.63;6.97;;;17.00;99.90;;;;;;4992010;28;20446;-55
2022/09/15 01:44:23;;;;;;;10.77;6.80;;;17.00;99.90;;;;;;4974197;28;20432;-55
2022/09/15 01:46:55;;;;;;;8.70;7.80;;;17.00;99.90;;;;;;4991063;28;20495;-55
2022/09/15 01:49:26;;;;;;;9.30;7.70;;;17.00;99.90;;;;;;4991216;28;20454;-56
2022/09/15 01:51:53;;;;;;;8.10;7.20;;;17.00;99.90;;;;;;4991041;28;20442;-55
2022/09/15 01:54:33;;;;;;;13.17;8.50;;;17.00;99.90;;;;;;4991547;28;20957;-55
2022/09/15 01:57:00;;;;;;;11.30;8.00;;;17.00;99.90;;;;;;4991799;28;21029;-53
2022/09/15 01:59:25;;;;;;;12.50;8.93;;;16.90;99.90;;;;;;4992365;28;20553;-55
2022/09/15 02:02:04;;;;;;;10.40;8.90;;;17.00;99.90;;;;;;4991989;28;20476;-54
2022/09/15 02:04:32;;;;;;;10.43;8.50;;;17.00;99.90;;;;;;4991414;28;20194;-55
2022/09/15 02:07:06;;;;;;;15.00;10.07;;;16.90;99.90;;;;;;4991627;28;20936;-53
2022/09/15 02:09:54;;;;;;;15.63;9.80;;;16.90;99.90;;;;;;4991235;28;20449;-55
2022/09/15 02:12:49;;;;;;;14.13;10.80;;;16.90;99.90;;;;;;4989074;28;20803;-55
2022/09/15 02:15:27;;;;;;;14.03;10.80;;;16.90;99.90;;;;;;4989554;28;20448;-56
2022/09/15 02:17:55;;;;;;;14.30;10.70;;;16.80;99.90;;;;;;4991168;28;20445;-55
2022/09/15 02:20:46;;;;;;;13.67;9.57;;;16.90;99.90;;;;;;4991231;28;20480;-52
2022/09/15 02:23:18;;;;;;;11.97;9.77;;;16.80;99.90;;;;;;4991585;28;20511;-54
2022/09/15 02:25:50;;;;;;;12.70;9.37;;;16.70;99.90;;;;;;4991198;28;20491;-56
2022/09/15 02:28:19;;;;;;;15.33;9.63;;;16.80;99.90;;;;;;4989400;28;21044;-55
2022/09/15 02:30:47;;;;;;;12.20;8.83;;;16.80;99.90;;;;;;4991233;28;20529;-54
2022/09/15 02:33:18;;;;;;;17.17;9.67;;;16.70;99.90;;;;;;4990955;28;20469;-54
2022/09/15 02:35:44;;;;;;;11.87;9.47;;;16.70;99.90;;;;;;4990976;28;20927;-55
2022/09/15 02:38:11;;;;;;;10.83;8.97;;;16.70;99.90;;;;;;4991116;28;20934;-55
2022/09/15 02:40:42;;;;;;;10.73;8.60;;;16.70;99.90;;;;;;4991167;28;20423;-55
2022/09/15 02:43:13;;;;;;;11.70;9.33;;;16.70;99.90;;;;;;4989322;28;20758;-54
2022/09/15 02:45:39;;;;;;;14.30;9.47;;;16.60;99.90;;;;;;4990695;28;20453;-56
2022/09/15 02:48:07;;;;;;;9.20;7.93;;;16.60;99.90;;;;;;4990163;28;20841;-55
2022/09/15 02:50:32;;;;;;;10.40;8.23;;;16.60;99.90;;;;;;4990410;28;20954;-56
2022/09/15 02:52:58;;;;;;;9.83;8.40;;;16.50;99.90;;;;;;4990782;28;20464;-53
2022/09/15 02:55:27;;;;;;;9.43;7.87;;;16.60;99.90;;;;;;4990771;28;20182;-56
2022/09/15 02:57:56;;;;;;;8.80;7.53;;;16.50;99.50;;;;;;4990437;28;20182;-54
2022/09/15 03:00:22;;;;;;;9.40;7.40;;;16.50;96.30;;;;;;4990472;28;20445;-56
2022/09/15 03:02:50;;;;;;;10.03;8.97;;;16.60;93.20;;;;;;4990554;28;20487;-56
2022/09/15 03:05:18;;;;;;;10.27;7.43;;;16.60;92.60;;;;;;4989398;28;20878;-52
2022/09/15 03:07:43;;;;;;;12.40;7.60;;;16.50;95.70;;;;;;4990468;28;20477;-56
2022/09/15 03:10:11;;;;;;;7.97;7.17;;;16.60;99.90;;;;;;4990440;28;21029;-56
2022/09/15 03:12:41;;;;;;;8.80;7.27;;;16.60;99.90;;;;;;4990548;28;20281;-55
2022/09/15 03:15:09;;;;;;;7.70;6.90;;;16.80;83.20;;;;;;4990407;28;20445;-54
2022/09/15 03:17:40;;;;;;;11.70;6.80;;;16.90;55.70;;;;;;4990359;28;20503;-58
2022/09/15 03:20:08;;;;;;;11.13;7.40;;;16.80;41.80;;;;;;4990667;28;20442;-55
2022/09/15 03:22:34;;;;;;;9.93;8.33;;;16.90;36.70;;;;;;4990587;28;20498;-53
2022/09/15 03:25:00;;;;;;;9.57;7.60;;;16.90;29.10;;;;;;4990384;28;20448;-55
2022/09/15 03:27:26;;;;;;;9.43;7.67;;;16.90;29.00;;;;;;4989789;28;20432;-53
2022/09/15 03:29:51;;;;;;;7.90;7.00;;;16.80;34.10;;;;;;4990676;28;20540;-56
2022/09/15 03:32:17;;;;;;;9.80;7.33;;;16.80;34.20;;;;;;4990312;28;20948;-55
2022/09/15 03:34:43;;;;;;;8.80;7.70;;;16.90;27.40;;;;;;4990275;28;20183;-56
2022/09/15 03:37:09;;;;;;;10.73;8.27;;;16.90;34.20;;;;;;4990294;28;20588;-56
2022/09/15 03:39:34;;;;;;;9.80;7.60;;;16.80;38.90;;;;;;4990200;28;20182;-53
2022/09/15 03:42:00;;;;;;;10.10;7.70;;;16.80;35.90;;;;;;4990186;28;20897;-55
2022/09/15 03:44:25;;;;;;;11.13;8.30;;;16.90;39.20;;;;;;4990254;28;20178;-52
2022/09/15 03:46:51;;;;;;;13.47;7.60;;;16.80;40.20;;;;;;4990101;28;20178;-55
2022/09/15 03:49:17;;;;;;;10.73;7.63;;;16.80;45.00;;;;;;4990173;28;20187;-54
2022/09/15 03:51:43;;;;;;;8.77;7.87;;;16.90;41.90;;;;;;4990210;28;20442;-54
2022/09/15 03:54:10;;;;;;;10.33;8.03;;;16.90;39.60;;;;;;4992891;28;20685;-54
2022/09/15 03:56:35;;;;;;;9.87;8.73;;;16.80;42.70;;;;;;4990039;28;20480;-55
2022/09/15 03:59:04;;;;;;;10.37;7.87;;;16.90;38.90;;;;;;4992193;28;20472;-55
2022/09/15 04:01:31;;;;;;;11.13;9.10;;;17.00;37.70;;;;;;4993963;28;20294;-57
2022/09/15 04:03:57;;;;;;;9.40;8.00;;;17.00;31.80;;;;;;4994117;28;20419;-54
2022/09/15 04:06:23;;;;;;;9.93;8.50;;;17.00;34.40;;;;;;4993593;28;20441;-53
2022/09/15 04:08:50;;;;;;;10.60;8.43;;;17.00;30.10;;;;;;4993517;28;20427;-54
2022/09/15 04:11:17;;;;;;;12.90;8.13;;;16.90;34.30;;;;;;4993726;28;20427;-54
2022/09/15 04:13:42;;;;;;;11.37;8.20;;;16.80;43.00;;;;;;4993321;28;20468;-56
2022/09/15 04:16:14;;;;;;;12.63;8.70;;;16.80;50.30;;;;;;4993468;28;20448;-56
2022/09/15 04:18:40;;;;;;;16.03;9.00;;;16.90;50.40;;;;;;4993141;28;20178;-54
2022/09/15 04:21:09;;;;;;;11.53;9.47;;;16.90;49.10;;;;;;4993198;28;20564;-55
2022/09/15 04:23:35;;;;;;;10.00;8.90;;;16.80;45.10;;;;;;4993631;28;20612;-56
2022/09/15 04:26:03;;;;;;;14.17;9.27;;;16.90;34.30;;;;;;4993357;28;20977;-55
2022/09/15 04:28:32;;;;;;;15.33;8.53;;;16.70;34.10;;;;;;4993597;28;20187;-55
2022/09/15 04:31:06;;;;;;;12.73;9.47;;;16.70;39.60;;;;;;4993367;28;20511;-55
2022/09/15 04:33:31;;;;;;;9.50;8.23;;;16.70;49.70;;;;;;4993183;28;20446;-56
2022/09/15 04:36:18;;;;;;;10.50;9.00;;;16.60;44.90;;;;;;4992934;28;20441;-54
2022/09/15 04:38:44;;;;;;;12.47;8.63;;;16.60;50.20;;;;;;4993598;28;20568;-56
2022/09/15 04:41:10;;;;;;;11.20;8.40;;;16.60;56.10;;;;;;4993020;28;20944;-55
2022/09/15 04:43:36;;;;;;;13.93;9.37;;;16.60;52.00;;;;;;4993009;28;20447;-55
2022/09/15 04:46:02;;;;;;;11.30;9.40;;;16.60;50.20;;;;;;4992845;28;20759;-54
2022/09/15 04:48:30;;;;;;;12.83;8.73;;;16.70;44.90;;;;;;4992799;28;20491;-55
2022/09/15 04:51:01;;;;;;;11.67;9.90;;;16.70;46.50;;;;;;4992857;28;20446;-52
2022/09/15 04:53:26;;;;;;;12.57;9.43;;;16.70;41.80;;;;;;4992942;28;20439;-58
2022/09/15 04:55:52;;;;;;;11.50;9.13;;;16.60;44.90;;;;;;4992662;28;20951;-55
2022/09/15 04:58:18;;;;;;;12.27;9.27;;;16.70;50.30;;;;;;4992851;28;20678;-53
2022/09/15 05:00:44;;;;;;;13.73;9.33;;;16.70;44.90;;;;;;4992765;28;20256;-55
2022/09/15 05:03:10;;;;;;;12.57;9.37;;;16.70;43.70;;;;;;4992612;28;20190;-55
2022/09/15 05:05:36;;;;;;;11.83;9.60;;;16.70;44.90;;;;;;4988338;28;20190;-52
2022/09/15 05:08:02;;;;;;;11.67;8.73;;;16.80;34.20;;;;;;4992709;28;20515;-55
2022/09/15 05:10:28;;;;;;;14.50;9.87;;;16.70;31.80;;;;;;4991708;28;20481;-56
2022/09/15 05:12:54;;;;;;;14.20;8.63;;;16.80;26.80;;;;;;4992061;28;21008;-55
2022/09/15 05:15:19;;;;;;;13.07;10.70;;;16.70;23.40;;;;;;4992008;28;20644;-56
2022/09/15 05:17:45;;;;;;;15.10;10.30;;;16.70;20.60;;;;;;4992521;28;20902;-55
2022/09/15 05:20:11;;;;;;;14.07;9.87;;;16.80;11.90;;;;;;4992331;28;20252;-55
2022/09/15 05:22:36;;;;;;;17.10;10.73;;;16.90;6.20;;;;;;4992092;28;20232;-57
2022/09/15 05:25:03;;;;;;;18.97;11.00;;;16.80;10.90;;;;;;4992490;28;20221;-53
2022/09/15 05:27:32;;;;;;;16.37;10.30;;;16.80;6.10;;;;;;4992009;28;20217;-55
2022/09/15 05:29:58;;;;;;;14.77;10.73;;;16.80;6.70;;;;;;4991816;28;20427;-54
2022/09/15 05:32:24;;;;;;;16.00;9.73;;;16.80;15.10;;;;;;4991427;28;20457;-54
2022/09/15 05:34:49;;;;;;;13.30;11.50;;;16.90;11.00;;;;;;4992095;28;20490;-53
2022/09/15 05:37:15;;;;;;;15.00;10.80;;;16.80;11.50;;;;;;4991632;28;20198;-56
2022/09/15 05:39:40;;;;;;;13.43;9.80;;;17.00;1.00;;;;;;4991851;28;20296;-55
2022/09/15 05:42:06;;;;;;;13.60;10.40;;;17.00;1.00;;;;;;4991508;28;20222;-54
2022/09/15 05:44:32;;;;;;;11.90;8.90;;;17.00;1.00;;;;;;4991198;28;20544;-54
2022/09/15 05:46:57;;;;;;;18.43;10.93;;;17.00;1.00;;;;;;4991700;28;20223;-53
2022/09/15 05:49:23;;;;;;;15.30;9.33;;;17.10;1.00;;;;;;4991363;28;20537;-55
2022/09/15 05:51:48;;;;;;;11.83;10.07;;;17.20;1.00;;;;;;4991483;28;20237;-55
2022/09/15 05:54:14;;;;;;;14.33;10.63;;;17.20;1.00;;;;;;4991479;28;20676;-53
2022/09/15 05:56:39;;;;;;;13.80;9.90;;;17.20;1.00;;;;;;4991429;28;20214;-52
2022/09/15 05:59:05;;;;;;;14.77;10.53;;;17.20;1.00;;;;;;4991673;28;20186;-55
2022/09/15 06:01:31;;;;;;;17.37;10.07;;;17.20;1.00;;;;;;4990969;28;20543;-54
2022/09/15 06:03:57;;;;;;;13.40;9.60;;;17.20;1.00;;;;;;4987451;28;20238;-55
2022/09/15 06:06:24;;;;;;;13.80;9.50;;;17.40;1.00;;;;;;4991213;28;20221;-56
2022/09/15 06:08:55;;;;;;;13.97;10.13;;;17.40;1.00;;;;;;4990993;28;20471;-54
2022/09/15 06:11:27;;;;;;;12.57;8.60;;;17.40;1.00;;;;;;4991045;28;20815;-54
2022/09/15 06:13:52;;;;;;;11.83;9.60;;;17.40;1.00;;;;;;4990539;28;20461;-55
2022/09/15 06:16:22;;;;;;;11.97;9.43;;;17.40;1.00;;;;;;4991235;28;20438;-55
2022/09/15 06:18:50;;;;;;;12.67;9.40;;;17.60;1.00;;;;;;4989024;28;20652;-55
2022/09/15 06:21:22;;;;;;;8.60;7.37;;;17.70;1.00;;;;;;4990397;28;20434;-55
2022/09/15 06:23:58;;;;;;;11.63;8.30;;;17.70;1.00;;;;;;4988173;28;20938;-56
2022/09/15 06:26:24;;;;;;;20.00;12.13;;;17.80;1.00;;;;;;4991165;28;20483;-55
2022/09/15 06:28:59;;;;;;;12.30;8.40;;;18.00;1.00;;;;;;4990309;28;20470;-54
2022/09/15 06:31:26;;;;;;;11.70;7.20;;;17.70;1.00;;;;;;4990808;28;21017;-54
2022/09/15 06:33:54;;;;;;;12.20;8.13;;;17.70;1.00;;;;;;4990891;28;20574;-54
2022/09/15 06:36:22;;;;;;;11.20;7.73;;;17.80;1.00;;;;;;4990595;28;20515;-55
2022/09/15 06:38:48;;;;;;;11.10;7.80;;;17.80;1.00;;;;;;4972926;28;20921;-56
2022/09/15 06:41:14;;;;;;;12.23;7.70;;;17.70;1.00;;;;;;4990578;28;20438;-53
2022/09/15 06:43:40;;;;;;;12.50;8.03;;;16.90;1.00;;;;;;4990566;28;20225;-53
2022/09/15 06:46:09;;;;;;;10.50;7.30;;;17.90;1.00;;;;;;4990707;28;20451;-56
2022/09/15 06:48:35;;;;;;;7.70;6.90;;;18.10;1.00;;;;;;4990695;28;20496;-56
2022/09/15 06:51:01;;;;;;;9.77;6.57;;;18.20;1.00;;;;;;4990369;28;20858;-55
2022/09/15 06:53:32;;;;;;;11.70;6.23;;;18.40;1.00;;;;;;4990677;28;20474;-53
2022/09/15 06:56:05;;;;;;;11.63;7.00;;;18.30;1.00;;;;;;4990461;28;20441;-55
2022/09/15 06:58:32;;;;;;;11.17;6.27;;;18.40;1.00;;;;;;4990689;28;20746;-54
2022/09/15 07:01:03;;;;;;;10.07;6.13;;;18.30;1.00;;;;;;4996602;28;20562;-54
2022/09/15 07:03:29;;;;;;;12.07;6.60;;;18.40;1.00;;;;;;4991219;28;20450;-55
2022/09/15 07:05:54;;;;;;;11.03;6.60;;;18.40;1.00;;;;;;4991140;28;20412;-55
2022/09/15 07:08:20;;;;;;;8.70;5.53;;;18.30;1.00;;;;;;4990820;28;20437;-53
2022/09/15 07:10:46;;;;;;;8.23;5.40;;;18.40;1.00;;;;;;4990777;28;20321;-54
2022/09/15 07:13:11;;;;;;;13.50;5.70;;;18.40;1.00;;;;;;4989793;28;20281;-56
2022/09/15 07:15:38;;;;;;;10.13;5.23;;;18.30;1.00;;;;;;4990979;28;20326;-55
2022/09/15 07:18:04;;;;;;;7.53;4.93;;;18.20;1.00;;;;;;4990400;28;20468;-55
2022/09/15 07:20:29;;;;;;;11.37;5.50;;;18.30;1.00;;;;;;4990437;28;20728;-56
2022/09/15 07:22:55;;;;;;;7.20;5.10;;;18.40;1.00;;;;;;4990850;28;20607;-54
2022/09/15 07:25:20;;;;;;;6.57;5.27;;;18.60;1.00;;;;;;4972725;28;20674;-53
2022/09/15 07:27:46;;;;;;;8.60;4.87;;;18.70;1.00;;;;;;4990626;28;20182;-55
2022/09/15 07:30:12;;;;;;;10.43;6.00;;;18.90;1.00;;;;;;4990080;28;20587;-55
2022/09/15 07:32:39;;;;;;;6.00;5.13;;;18.90;1.00;;;;;;4990353;28;20595;-53
2022/09/15 07:35:05;;;;;;;9.00;5.50;;;18.80;1.00;;;;;;4976903;28;20472;-55
2022/09/15 07:37:32;;;;;;;11.60;5.53;;;;;;;;;;4993012;28;20437;-55
2022/09/15 07:39:58;;;;;;;9.90;5.50;;;18.80;1.00;;;;;;4994450;28;20447;-53
2022/09/15 07:42:24;;;;;;;16.33;6.17;;;18.90;1.00;;;;;;4993617;28;20476;-55
2022/09/15 07:44:50;;;;;;;8.67;4.90;;;18.80;1.00;;;;;;4994518;28;21035;-54
2022/09/15 07:47:16;;;;;;;7.37;5.03;;;18.80;1.00;;;;;;4993923;28;20510;-55
2022/09/15 07:49:42;;;;;;;10.90;5.70;;;18.80;1.00;;;;;;4994026;28;20178;-55
2022/09/15 07:52:08;;;;;;;9.60;5.90;;;18.90;1.00;;;;;;4994217;28;20198;-57
2022/09/15 07:54:34;;;;;;;7.80;4.73;;;18.80;1.00;;;;;;4993674;28;20440;-57
2022/09/15 07:57:00;;;;;;;7.90;5.70;;;19.00;1.00;;;;;;4999120;28;20421;-55
2022/09/15 07:59:26;;;;;;;9.77;4.67;;;19.10;1.00;;;;;;4977826;28;20178;-56
2022/09/15 08:01:51;;;;;;;8.47;5.13;;;19.30;1.00;;;;;;4993689;28;20229;-54
2022/09/15 08:04:17;;;;;;;7.33;4.10;;;;;;;;;;4993473;28;20197;-57
2022/09/15 08:06:43;;;;;;;10.43;4.97;;;19.60;1.00;;;;;;4993022;28;20178;-54
2022/09/15 08:09:13;;;;;;;8.83;4.43;;;19.50;1.00;;;;;;4993650;28;20470;-55
2022/09/15 08:11:40;;;;;;;8.60;5.13;;;19.40;1.00;;;;;;4992944;28;20274;-55
2022/09/15 08:14:07;;;;;;;7.33;4.50;;;19.30;1.00;;;;;;4993542;28;20479;-55
2022/09/15 08:16:32;;;;;;;8.00;3.90;;;19.30;1.00;;;;;;4993293;28;20483;-53
2022/09/15 08:18:58;;;;;;;6.73;5.10;;;19.20;1.00;;;;;;4993520;28;20453;-56
2022/09/15 08:21:24;;;;;;;5.30;4.23;;;18.90;1.00;;;;;;4993715;28;20269;-55
2022/09/15 08:23:55;;;;;;;6.30;5.17;;;18.80;1.00;;;;;;4993494;28;20503;-53
2022/09/15 08:26:21;;;;;;;9.70;5.40;;;18.60;1.00;;;;;;4993606;28;20194;-55
2022/09/15 08:28:47;;;;;;;14.03;6.00;;;18.60;1.00;;;;;;4994288;28;20442;-56
2022/09/15 08:31:13;;;;;;;8.90;5.00;;;18.40;1.00;;;;;;4993005;28;20467;-53
2022/09/15 08:33:40;;;;;;;8.90;6.50;;;18.40;1.00;;;;;;4992633;28;20520;-55
2022/09/15 08:36:10;;;;;;;11.83;8.57;;;18.40;1.00;;;;;;4993336;28;20438;-55
2022/09/15 08:38:39;;;;;;;10.10;8.60;;;18.30;1.00;;;;;;4992884;28;20424;-55
2022/09/15 08:41:09;;;;;;;11.20;8.93;;;18.10;1.00;;;;;;4993407;28;20926;-56
2022/09/15 08:43:40;;;;;;;13.33;9.80;;;18.10;1.00;;;;;;4992790;28;20767;-54
2022/09/15 08:46:12;;;;;;;10.30;8.73;;;18.30;1.00;;;;;;4992173;28;20719;-54
2022/09/15 08:48:51;;;;;;;9.50;8.50;;;18.40;1.00;;;;;;4992673;28;20519;-55
2022/09/15 08:51:27;;;;;;;12.87;9.20;;;18.40;1.00;;;;;;4993113;28;20485;-55
2022/09/15 08:54:00;;;;;;;9.93;7.97;;;18.30;1.00;;;;;;4992605;28;20468;-56
2022/09/15 08:56:27;;;;;;;9.97;6.70;;;18.20;1.00;;;;;;4992583;28;20424;-54
2022/09/15 08:58:53;;;;;;;10.90;7.43;;;18.40;1.00;;;;;;4992341;28;20447;-55
2022/09/15 09:01:38;;;;;;;9.30;7.30;;;18.70;1.00;;;;;;4992343;28;20481;-55
2022/09/15 09:04:17;;;;;;;11.60;6.57;;;19.10;1.00;;;;;;4992731;28;20451;-53
2022/09/15 09:06:52;;;;;;;8.30;4.83;;;19.20;1.00;;;;;;4992869;28;20835;-53
2022/09/15 09:09:37;;;;;;;14.40;6.30;;;19.50;1.00;;;;;;4990929;28;20456;-54
2022/09/15 09:12:31;;;;;;;6.47;4.93;;;19.70;1.00;;;;;;4996989;28;20885;-53
2022/09/15 09:15:27;;;;;;;7.53;5.00;;;19.80;1.00;;;;;;4991386;28;20948;-54
2022/09/15 09:18:31;;;;;;;9.90;4.80;;;20.00;1.00;;;;;;4990627;28;20504;-52
2022/09/15 09:21:15;;;;;;;11.30;4.67;;;19.90;1.00;;;;;;4991507;28;20437;-54
2022/09/15 09:24:02;;;;;;;6.07;4.10;;;19.70;1.00;;;;;;4989304;28;20532;-55
2022/09/15 09:26:29;;;;;;;6.90;3.87;;;19.80;1.00;;;;;;4990872;28;20745;-54
2022/09/15 09:28:58;;;;;;;8.17;3.67;;;20.00;1.00;;;;;;4991900;28;20532;-54
2022/09/15 09:31:25;;;;;;;6.27;3.40;;;20.10;1.00;;;;;;4989867;28;20457;-56
2022/09/15 09:34:27;;;;;;;5.20;3.50;;;20.30;1.00;;;;;;4991125;28;20545;-55
2022/09/15 09:37:07;;;;;;;8.50;3.60;;;20.10;1.00;;;;;;4984650;28;21011;-57
2022/09/15 09:39:33;;;;;;;4.40;3.43;;;20.30;1.00;;;;;;4990404;28;20971;-53
2022/09/15 09:41:59;;;;;;;4.87;3.50;;;20.60;1.00;;;;;;4990902;28;20465;-55
2022/09/15 09:44:30;;;;;;;4.97;3.67;;;20.60;1.00;;;;;;4991659;28;20714;-56
2022/09/15 09:46:59;;;;;;;5.00;3.13;;;20.60;1.00;;;;;;4991502;28;20217;-54
2022/09/15 09:49:47;;;;;;;5.53;3.60;;;20.50;1.00;;;;;;4988547;28;20899;-56
2022/09/15 09:52:30;;;;;;;6.50;3.50;;;20.40;1.00;;;;;;4991248;28;20453;-55
2022/09/15 09:55:18;;;;;;;3.90;3.00;;;20.10;1.00;;;;;;4988336;28;20533;-55
2022/09/15 09:57:44;;;;;;;6.63;3.70;;;18.50;1.00;;;;;;4990480;28;20437;-53
2022/09/15 10:00:33;;;;;;;7.50;4.30;;;20.00;1.00;;;;;;4991183;28;20487;-55
2022/09/15 10:03:29;;;;;;;7.60;3.40;;;19.90;1.00;;;;;;4979791;28;20205;-54
2022/09/15 10:06:23;;;;;;;8.20;3.30;;;19.80;1.00;;;;;;4989661;28;20441;-55
2022/09/15 10:08:55;;;;;;;7.77;3.13;;;19.80;1.00;;;;;;4990524;28;20430;-54
2022/09/15 10:11:21;;;;;;;7.53;2.93;;;19.80;1.00;;;;;;4990760;28;20434;-55
2022/09/15 10:13:56;;;;;;;7.60;3.50;;;19.90;1.00;;;;;;4991036;28;20471;-53
2022/09/15 10:16:21;;;;;;;5.23;3.57;;;19.50;1.00;;;;;;4991019;28;20834;-55
2022/09/15 10:18:49;;;;;;;11.07;3.30;;;19.10;1.00;;;;;;4991056;28;20444;-54
2022/09/15 10:21:21;;;;;;;6.67;3.30;;;19.00;1.00;;;;;;4990796;28;20188;-57
2022/09/15 10:23:46;;;;;;;5.40;3.30;;;18.90;1.00;;;;;;4991191;28;20425;-56
2022/09/15 10:26:28;;;;;;;6.23;3.20;;;18.80;1.00;;;;;;4990656;28;20496;-57
2022/09/15 10:29:23;;;;;;;7.90;2.60;;;18.80;1.00;;;;;;4990987;28;20220;-55
2022/09/15 10:31:49;;;;;;;3.33;2.20;;;18.80;1.00;;;;;;4970156;28;20461;-54
2022/09/15 10:34:29;;;;;;;3.20;2.60;;;18.70;1.00;;;;;;4990132;28;20489;-55
2022/09/15 10:37:22;;;;;;;2.33;2.10;;;18.60;1.00;;;;;;4991217;28;20541;-55
2022/09/15 10:39:53;;;;;;;6.30;2.87;;;18.60;1.00;;;;;;4988842;28;20460;-55
2022/09/15 10:42:37;;;;;;;4.80;2.43;;;19.10;1.00;;;;;;4990544;28;20469;-56
2022/09/15 10:45:31;;;;;;;3.13;1.90;;;19.50;1.00;;;;;;4990360;28;20433;-55
2022/09/15 10:48:05;;;;;;;2.17;1.80;;;19.60;1.00;;;;;;4989925;28;20946;-55
2022/09/15 10:50:54;;;;;;;4.20;2.20;;;19.80;1.00;;;;;;4990451;28;20437;-55
2022/09/15 10:53:36;;;;;;;4.50;2.10;;;20.10;1.00;;;;;;4990434;28;21036;-55
2022/09/15 10:56:25;;;;;;;6.30;2.70;;;20.50;1.00;;;;;;4990855;28;20452;-56
2022/09/15 10:59:18;;;;;;;6.23;3.07;;;20.50;1.00;;;;;;4963815;28;20523;-55
2022/09/15 11:02:03;;;;;;;3.80;2.37;;;20.70;1.00;;;;;;4944334;28;20457;-55
2022/09/15 11:04:37;;;;;;;6.07;2.20;;;20.90;1.00;;;;;;4988892;28;20448;-57
2022/09/15 11:07:14;;;;;;;4.83;2.47;;;21.10;1.00;;;;;;4990713;28;20436;-54
2022/09/15 11:09:54;;;;;;;4.60;2.80;;;20.70;1.00;;;;;;4989940;28;20499;-56
2022/09/15 11:12:30;;;;;;;5.33;3.03;;;20.70;1.00;;;;;;4990172;28;20796;-55
2022/09/15 11:15:32;;;;;;;3.97;2.87;;;20.80;1.00;;;;;;4988117;28;20444;-54
2022/09/15 11:18:32;;;;;;;3.70;3.20;;;20.90;1.00;;;;;;4988249;28;20494;-53
2022/09/15 11:21:13;;;;;;;3.73;3.37;;;20.80;1.00;;;;;;4969320;28;20536;-57
2022/09/15 11:23:46;;;;;;;6.33;3.40;;;20.90;1.00;;;;;;4990258;28;20445;-56
2022/09/15 11:26:20;;;;;;;5.37;3.43;;;21.00;1.00;;;;;;4990565;28;20953;-56
2022/09/15 11:28:58;;;;;;;5.57;3.70;;;20.90;1.00;;;;;;4990082;28;20483;-54
2022/09/15 11:31:28;;;;;;;4.40;3.60;;;20.70;1.00;;;;;;4987328;28;20456;-56
2022/09/15 11:34:05;;;;;;;7.73;3.57;;;20.40;1.00;;;;;;4990900;28;20465;-56
2022/09/15 11:36:41;;;;;;;9.33;3.40;;;20.30;1.00;;;;;;4990267;28;20445;-57
2022/09/15 11:39:21;;;;;;;5.10;3.50;;;20.60;1.00;;;;;;4989807;28;20476;-53
2022/09/15 11:41:55;;;;;;;3.80;2.90;;;20.70;1.00;;;;;;4991110;28;20532;-57
2022/09/15 11:44:31;;;;;;;5.27;3.10;;;20.90;1.00;;;;;;4990277;28;20843;-56
2022/09/15 11:47:18;;;;;;;2.60;2.20;;;21.00;1.00;;;;;;4990595;28;20542;-54
2022/09/15 11:49:48;;;;;;;5.83;2.30;;;20.60;1.00;;;;;;4990048;28;20444;-53
2022/09/15 11:52:38;;;;;;;4.77;2.43;;;20.80;1.00;;;;;;4990427;28;20898;-54
2022/09/15 11:55:20;;;;;;;3.70;2.33;;;20.70;1.00;;;;;;4987567;28;20437;-53
2022/09/15 11:58:05;;;;;;;4.30;2.67;;;20.90;1.00;;;;;;4989789;28;20482;-55
2022/09/15 12:00:34;;;;;;;3.27;2.67;;;20.70;1.00;;;;;;4990377;28;20445;-56
2022/09/15 12:03:21;;;;;;;4.90;3.50;;;20.60;1.00;;;;;;4989792;28;20453;-55
2022/09/15 12:05:54;;;;;;;7.20;2.90;;;20.70;1.00;;;;;;4989845;28;20469;-56
2022/09/15 12:08:40;;;;;;;5.10;2.97;;;20.90;1.00;;;;;;4972991;28;20454;-54
2022/09/15 12:11:14;;;;;;;8.00;3.77;;;20.80;1.00;;;;;;4972979;28;20536;-55
2022/09/15 12:13:40;;;;;;;4.13;3.03;;;;;;;;;;4989507;28;20563;-56
2022/09/15 12:16:07;;;;;;;3.03;2.67;;;20.70;1.00;;;;;;4987063;28;20496;-58
2022/09/15 12:19:00;;;;;;;4.40;2.97;;;20.50;1.00;;;;;;4987700;28;20469;-52
2022/09/15 12:21:35;;;;;;;4.20;3.33;;;20.50;1.00;;;;;;4991744;28;20441;-56
2022/09/15 12:24:26;;;;;;;6.17;3.30;;;20.40;1.00;;;;;;4993259;28;20452;-56
2022/09/15 12:26:52;;;;;;;4.70;3.63;;;20.70;1.00;;;;;;4993043;28;20444;-55
2022/09/15 12:29:20;;;;;;;4.53;3.50;;;20.90;1.00;;;;;;4993638;28;20531;-55
2022/09/15 12:31:46;;;;;;;7.03;3.50;;;21.00;1.00;;;;;;4993296;28;20186;-56
2022/09/15 12:34:23;;;;;;;4.53;3.50;;;21.00;1.00;;;;;;4992649;28;20461;-55
2022/09/15 12:36:52;;;;;;;4.10;3.73;;;20.90;1.00;;;;;;4993050;28;20175;-57
2022/09/15 12:39:38;;;;;;;4.20;3.63;;;20.50;1.00;;;;;;4993208;28;20511;-56
2022/09/15 12:42:20;;;;;;;7.07;4.33;;;20.30;1.00;;;;;;4992475;28;20466;-55
2022/09/15 12:44:53;;;;;;;3.70;3.40;;;20.10;1.00;;;;;;4989691;28;20651;-55
2022/09/15 12:47:20;;;;;;;4.33;3.93;;;20.10;1.00;;;;;;4990223;28;20568;-53
2022/09/15 12:49:48;;;;;;;4.67;4.13;;;20.00;1.00;;;;;;4992992;28;20498;-57
2022/09/15 12:52:15;;;;;;;5.00;4.20;;;19.90;1.00;;;;;;4992768;28;20496;-54
2022/09/15 12:54:44;;;;;;;4.57;4.13;;;20.10;1.00;;;;;;4993042;28;20437;-55
2022/09/15 12:57:36;;;;;;;5.17;3.70;;;20.10;1.00;;;;;;4992320;28;20450;-55
2022/09/15 13:00:31;;;;;;;5.07;3.70;;;20.20;1.00;;;;;;4987711;28;20478;-54
2022/09/15 13:02:57;;;;;;;5.80;3.60;;;19.90;1.00;;;;;;4992266;28;20454;-55
2022/09/15 13:05:41;;;;;;;5.67;3.73;;;18.40;1.00;;;;;;4992895;28;20497;-57
2022/09/15 13:08:14;;;;;;;4.27;3.73;;;19.50;1.00;;;;;;4992599;28;20185;-56
2022/09/15 13:11:01;;;;;;;5.80;4.53;;;19.40;1.00;;;;;;4992341;28;20665;-56
2022/09/15 13:13:35;;;;;;;5.70;4.33;;;19.30;1.00;;;;;;4991991;28;20469;-56
2022/09/15 13:16:05;;;;;;;6.20;4.10;;;19.30;1.00;;;;;;4992265;28;20468;-57